sensor_id;sensor_type;location;lat;lon;timestamp;pressure;altitude;pressure_sealevel;temperature;humidity
3254;BME280;1639;42.804;23.342;2022-08-02T00:01:41;72341.53;;;-148.52;70.46
3254;BME280;1639;42.804;23.342;2022-08-02T00:04:06;72312.59;;;-148.52;69.42
3254;BME280;1639;42.804;23.342;2022-08-02T00:06:32;72318.78;;;-148.52;69.27
3254;BME280;1639;42.804;23.342;2022-08-02T00:08:57;72331.19;;;-148.52;69.62
3254;BME280;1639;42.804;23.342;2022-08-02T00:11:23;72347.72;;;-148.52;70.72
3254;BME280;1639;42.804;23.342;2022-08-02T00:13:49;72345.66;;;-148.52;70.63
3254;BME280;1639;42.804;23.342;2022-08-02T00:16:14;72318.78;;;-148.52;69.95
3254;BME280;1639;42.804;23.342;2022-08-02T00:18:39;72335.31;;;-148.52;70.66
3254;BME280;1639;42.804;23.342;2022-08-02T00:21:05;72325.00;;;-148.52;69.69
3254;BME280;1639;42.804;23.342;2022-08-02T00:23:30;72335.31;;;-148.52;70.05
3254;BME280;1639;42.804;23.342;2022-08-02T00:25:56;72341.53;;;-148.52;69.83
3254;BME280;1639;42.804;23.342;2022-08-02T00:28:23;72360.13;;;-148.52;70.54
3254;BME280;1639;42.804;23.342;2022-08-02T00:30:49;72372.56;;;-148.52;71.06
3254;BME280;1639;42.804;23.342;2022-08-02T00:33:14;72368.41;;;-148.52;71.10
3254;BME280;1639;42.804;23.342;2022-08-02T00:35:39;72372.56;;;-148.52;71.01
3254;BME280;1639;42.804;23.342;2022-08-02T00:38:05;72370.47;;;-148.52;71.44
3254;BME280;1639;42.804;23.342;2022-08-02T00:40:30;72389.09;;;-148.52;72.27
3254;BME280;1639;42.804;23.342;2022-08-02T00:43:03;72380.81;;;-148.52;72.41
3254;BME280;1639;42.804;23.342;2022-08-02T00:45:31;72405.63;;;-148.52;72.81
3254;BME280;1639;42.804;23.342;2022-08-02T00:47:56;72393.22;;;-148.52;72.61
3254;BME280;1639;42.804;23.342;2022-08-02T00:50:22;72391.16;;;-148.52;71.83
3254;BME280;1639;42.804;23.342;2022-08-02T00:52:47;72405.63;;;-148.52;73.03
3254;BME280;1639;42.804;23.342;2022-08-02T00:55:13;72409.78;;;-148.52;73.54
3254;BME280;1639;42.804;23.342;2022-08-02T00:57:38;72411.84;;;-148.52;74.29
3254;BME280;1639;42.804;23.342;2022-08-02T01:00:04;72409.78;;;-148.52;73.82
3254;BME280;1639;42.804;23.342;2022-08-02T01:02:30;72418.03;;;-148.52;73.62
3254;BME280;1639;42.804;23.342;2022-08-02T01:04:56;72407.69;;;-148.52;73.54
3254;BME280;1639;42.804;23.342;2022-08-02T01:07:21;72422.19;;;-148.52;74.43
3254;BME280;1639;42.804;23.342;2022-08-02T01:09:46;72451.13;;;-148.52;75.96
3254;BME280;1639;42.804;23.342;2022-08-02T01:12:12;72453.19;;;-148.52;76.63
3254;BME280;1639;42.804;23.342;2022-08-02T01:14:40;72459.41;;;-148.52;77.58
3254;BME280;1639;42.804;23.342;2022-08-02T01:17:09;72444.94;;;-148.52;76.97
3254;BME280;1639;42.804;23.342;2022-08-02T01:19:46;72440.78;;;-148.52;76.59
3254;BME280;1639;42.804;23.342;2022-08-02T01:27:50;72451.13;;;-148.52;76.60
3254;BME280;1639;42.804;23.342;2022-08-02T01:30:17;72459.41;;;-148.52;76.74
3254;BME280;1639;42.804;23.342;2022-08-02T01:32:49;72480.09;;;-148.52;78.33
3254;BME280;1639;42.804;23.342;2022-08-02T01:35:29;72484.22;;;-148.52;78.54
3254;BME280;1639;42.804;23.342;2022-08-02T01:38:10;72482.16;;;-148.52;78.32
3254;BME280;1639;42.804;23.342;2022-08-02T01:40:41;72480.09;;;-148.52;78.13
3254;BME280;1639;42.804;23.342;2022-08-02T01:43:09;72486.28;;;-148.52;78.25
3254;BME280;1639;42.804;23.342;2022-08-02T01:45:38;72492.50;;;-148.52;79.16
3254;BME280;1639;42.804;23.342;2022-08-02T01:48:05;72490.41;;;-148.52;78.80
3254;BME280;1639;42.804;23.342;2022-08-02T01:50:33;72504.91;;;-148.52;79.42
3254;BME280;1639;42.804;23.342;2022-08-02T01:53:06;72509.03;;;-148.52;80.28
3254;BME280;1639;42.804;23.342;2022-08-02T01:55:47;72506.97;;;-148.52;81.25
3254;BME280;1639;42.804;23.342;2022-08-02T01:58:16;72504.91;;;-148.52;80.86
3254;BME280;1639;42.804;23.342;2022-08-02T02:00:43;72504.91;;;-148.52;80.66
3254;BME280;1639;42.804;23.342;2022-08-02T02:03:18;72494.56;;;-148.52;80.20
3254;BME280;1639;42.804;23.342;2022-08-02T02:05:46;72519.38;;;-148.52;80.89
3254;BME280;1639;42.804;23.342;2022-08-02T02:08:13;72500.75;;;-148.52;80.91
3254;BME280;1639;42.804;23.342;2022-08-02T02:10:39;72482.16;;;-148.52;79.82
3254;BME280;1639;42.804;23.342;2022-08-02T02:13:11;72471.81;;;-148.52;78.56
3254;BME280;1639;42.804;23.342;2022-08-02T02:15:43;72436.66;;;-148.52;77.61
3254;BME280;1639;42.804;23.342;2022-08-02T02:18:17;72411.84;;;-148.52;75.15
3254;BME280;1639;42.804;23.342;2022-08-02T02:20:45;72413.91;;;-148.52;74.84
3254;BME280;1639;42.804;23.342;2022-08-02T02:23:11;72405.63;;;-148.52;74.26
3254;BME280;1639;42.804;23.342;2022-08-02T02:25:40;72405.63;;;-148.52;73.56
3254;BME280;1639;42.804;23.342;2022-08-02T02:28:10;72413.91;;;-148.52;74.09
3254;BME280;1639;42.804;23.342;2022-08-02T02:30:38;72422.19;;;-148.52;73.88
3254;BME280;1639;42.804;23.342;2022-08-02T02:33:06;72434.59;;;-148.52;74.94
3254;BME280;1639;42.804;23.342;2022-08-02T02:35:33;72444.94;;;-148.52;75.95
3254;BME280;1639;42.804;23.342;2022-08-02T02:38:07;72440.78;;;-148.52;75.93
3254;BME280;1639;42.804;23.342;2022-08-02T02:40:34;72465.59;;;-148.52;75.19
3254;BME280;1639;42.804;23.342;2022-08-02T02:43:02;72467.66;;;-148.52;75.50
3254;BME280;1639;42.804;23.342;2022-08-02T02:45:29;72463.53;;;-148.52;75.55
3254;BME280;1639;42.804;23.342;2022-08-02T02:47:57;72467.66;;;-148.52;75.63
3254;BME280;1639;42.804;23.342;2022-08-02T02:50:25;72461.47;;;-148.52;74.64
3254;BME280;1639;42.804;23.342;2022-08-02T02:52:51;72486.28;;;-148.52;75.60
3254;BME280;1639;42.804;23.342;2022-08-02T02:55:17;72486.28;;;-148.52;75.70
3254;BME280;1639;42.804;23.342;2022-08-02T02:57:44;72475.94;;;-148.52;76.01
3254;BME280;1639;42.804;23.342;2022-08-02T03:00:12;72475.94;;;-148.52;76.06
3254;BME280;1639;42.804;23.342;2022-08-02T03:02:39;72494.56;;;-148.52;76.14
3254;BME280;1639;42.804;23.342;2022-08-02T03:05:06;72494.56;;;-148.52;76.60
3254;BME280;1639;42.804;23.342;2022-08-02T03:07:32;72500.75;;;-148.52;77.34
3254;BME280;1639;42.804;23.342;2022-08-02T03:09:59;72517.31;;;-148.52;77.44
3254;BME280;1639;42.804;23.342;2022-08-02T03:12:25;72515.22;;;-148.52;76.99
3254;BME280;1639;42.804;23.342;2022-08-02T03:14:51;72525.56;;;-148.52;77.82
3254;BME280;1639;42.804;23.342;2022-08-02T03:17:17;72519.38;;;-148.52;78.83
3254;BME280;1639;42.804;23.342;2022-08-02T03:19:44;72519.38;;;-148.52;78.04
3254;BME280;1639;42.804;23.342;2022-08-02T03:22:09;72521.44;;;-148.52;77.87
3254;BME280;1639;42.804;23.342;2022-08-02T03:24:35;72517.31;;;-148.52;77.94
3254;BME280;1639;42.804;23.342;2022-08-02T03:27:01;72515.22;;;-148.52;77.34
3254;BME280;1639;42.804;23.342;2022-08-02T03:29:26;72506.97;;;-148.52;77.06
3254;BME280;1639;42.804;23.342;2022-08-02T03:31:52;72519.38;;;-148.52;76.63
3254;BME280;1639;42.804;23.342;2022-08-02T03:34:18;72519.38;;;-148.52;77.49
3254;BME280;1639;42.804;23.342;2022-08-02T03:36:46;72492.50;;;-148.52;76.78
3254;BME280;1639;42.804;23.342;2022-08-02T03:39:12;72509.03;;;-148.52;77.25
3254;BME280;1639;42.804;23.342;2022-08-02T03:41:38;72502.81;;;-148.52;77.17
3254;BME280;1639;42.804;23.342;2022-08-02T03:44:05;72496.63;;;-148.52;76.47
3254;BME280;1639;42.804;23.342;2022-08-02T03:46:33;72469.75;;;-148.52;75.46
3254;BME280;1639;42.804;23.342;2022-08-02T03:49:03;72459.41;;;-148.52;74.07
3254;BME280;1639;42.804;23.342;2022-08-02T03:51:30;72467.66;;;-148.52;74.46
3254;BME280;1639;42.804;23.342;2022-08-02T03:53:56;72463.53;;;-148.52;74.46
3254;BME280;1639;42.804;23.342;2022-08-02T03:56:21;72494.56;;;-148.52;75.76
3254;BME280;1639;42.804;23.342;2022-08-02T03:58:46;72527.66;;;-148.52;76.72
3254;BME280;1639;42.804;23.342;2022-08-02T04:01:12;72535.91;;;-148.52;77.98
3254;BME280;1639;42.804;23.342;2022-08-02T04:03:37;72544.19;;;-148.52;77.57
3254;BME280;1639;42.804;23.342;2022-08-02T04:06:03;72581.41;;;-148.52;79.22
3254;BME280;1639;42.804;23.342;2022-08-02T04:08:28;72589.69;;;-148.52;80.01
3254;BME280;1639;42.804;23.342;2022-08-02T04:10:54;72589.69;;;-148.52;80.45
3254;BME280;1639;42.804;23.342;2022-08-02T04:13:39;72575.22;;;-148.52;79.77
3254;BME280;1639;42.804;23.342;2022-08-02T04:16:27;72535.91;;;-148.52;78.91
3254;BME280;1639;42.804;23.342;2022-08-02T04:19:01;72500.75;;;-148.52;77.04
3254;BME280;1639;42.804;23.342;2022-08-02T04:21:31;72453.19;;;-148.52;75.05
3254;BME280;1639;42.804;23.342;2022-08-02T04:23:57;72440.78;;;-148.52;73.89
3254;BME280;1639;42.804;23.342;2022-08-02T04:26:23;72455.25;;;-148.52;72.64
3254;BME280;1639;42.804;23.342;2022-08-02T04:28:49;72469.75;;;-148.52;73.10
3254;BME280;1639;42.804;23.342;2022-08-02T04:31:18;72444.94;;;-148.52;72.56
3254;BME280;1639;42.804;23.342;2022-08-02T04:33:44;72442.84;;;-148.52;72.79
3254;BME280;1639;42.804;23.342;2022-08-02T04:36:10;72422.19;;;-148.52;71.34
3254;BME280;1639;42.804;23.342;2022-08-02T04:38:38;72413.91;;;-148.52;71.98
3254;BME280;1639;42.804;23.342;2022-08-02T04:41:03;72434.59;;;-148.52;71.91
3254;BME280;1639;42.804;23.342;2022-08-02T04:43:29;72430.44;;;-148.52;70.85
3254;BME280;1639;42.804;23.342;2022-08-02T04:45:54;72411.84;;;-148.52;71.41
3254;BME280;1639;42.804;23.342;2022-08-02T04:48:21;72401.50;;;-148.52;70.40
3254;BME280;1639;42.804;23.342;2022-08-02T04:50:47;72378.75;;;-148.52;69.89
3254;BME280;1639;42.804;23.342;2022-08-02T04:53:12;72362.22;;;-148.52;69.23
3254;BME280;1639;42.804;23.342;2022-08-02T04:55:38;72335.31;;;-148.52;68.65
3254;BME280;1639;42.804;23.342;2022-08-02T04:58:03;72322.91;;;-148.52;67.96
3254;BME280;1639;42.804;23.342;2022-08-02T05:00:29;72318.78;;;-148.52;66.58
3254;BME280;1639;42.804;23.342;2022-08-02T05:02:56;72296.03;;;-148.52;66.02
3254;BME280;1639;42.804;23.342;2022-08-02T05:05:22;72289.84;;;-148.52;66.07
3254;BME280;1639;42.804;23.342;2022-08-02T05:07:47;72281.56;;;-148.52;65.38
3254;BME280;1639;42.804;23.342;2022-08-02T05:10:13;72291.91;;;-148.52;64.97
3254;BME280;1639;42.804;23.342;2022-08-02T05:12:39;72314.66;;;-148.52;65.57
3254;BME280;1639;42.804;23.342;2022-08-02T05:15:06;72273.28;;;-148.52;64.75
3254;BME280;1639;42.804;23.342;2022-08-02T05:17:31;72256.75;;;-148.52;63.67
3254;BME280;1639;42.804;23.342;2022-08-02T05:19:57;72240.22;;;-148.52;63.48
3254;BME280;1639;42.804;23.342;2022-08-02T05:22:22;72223.66;;;-148.52;62.88
3254;BME280;1639;42.804;23.342;2022-08-02T05:24:48;72190.56;;;-148.52;63.21
3254;BME280;1639;42.804;23.342;2022-08-02T05:27:13;72182.31;;;-148.52;61.17
3254;BME280;1639;42.804;23.342;2022-08-02T05:29:38;72178.16;;;-148.52;62.73
3254;BME280;1639;42.804;23.342;2022-08-02T05:32:04;72149.22;;;-148.52;61.14
3254;BME280;1639;42.804;23.342;2022-08-02T05:34:30;72165.75;;;-148.52;61.52
3254;BME280;1639;42.804;23.342;2022-08-02T05:36:55;72157.50;;;-148.52;60.60
3254;BME280;1639;42.804;23.342;2022-08-02T05:39:20;72169.91;;;-148.52;60.68
3254;BME280;1639;42.804;23.342;2022-08-02T05:41:46;72159.56;;;-148.52;60.58
3254;BME280;1639;42.804;23.342;2022-08-02T05:44:11;72174.03;;;-148.52;60.75
3254;BME280;1639;42.804;23.342;2022-08-02T05:46:37;72176.09;;;-148.52;60.18
3254;BME280;1639;42.804;23.342;2022-08-02T05:49:02;72159.56;;;-148.52;61.62
3254;BME280;1639;42.804;23.342;2022-08-02T05:52:02;72120.28;;;-148.52;63.02
3254;BME280;1639;42.804;23.342;2022-08-02T05:54:34;72083.06;;;-148.52;60.97
3254;BME280;1639;42.804;23.342;2022-08-02T05:57:25;72078.91;;;-148.52;62.93
3254;BME280;1639;42.804;23.342;2022-08-02T06:00:07;72085.13;;;-148.52;62.72
3254;BME280;1639;42.804;23.342;2022-08-02T06:05:26;72155.44;;;-148.52;65.79
3254;BME280;1639;42.804;23.342;2022-08-02T06:07:54;72112.00;;;-148.52;64.64
3254;BME280;1639;42.804;23.342;2022-08-02T06:10:20;72130.63;;;-148.52;64.15
3254;BME280;1639;42.804;23.342;2022-08-02T06:13:02;72072.72;;;-148.52;61.68
3254;BME280;1639;42.804;23.342;2022-08-02T06:15:31;72025.16;;;-148.52;59.77
3254;BME280;1639;42.804;23.342;2022-08-02T06:17:57;72002.41;;;-148.52;59.56
3254;BME280;1639;42.804;23.342;2022-08-02T06:20:25;72012.75;;;-148.52;59.39
3254;BME280;1639;42.804;23.342;2022-08-02T06:22:52;71990.00;;;-148.52;59.21
3254;BME280;1639;42.804;23.342;2022-08-02T06:25:20;71950.72;;;-148.52;58.47
3254;BME280;1639;42.804;23.342;2022-08-02T06:27:48;71917.63;;;-148.52;57.58
3254;BME280;1639;42.804;23.342;2022-08-02T06:30:14;71880.41;;;-148.52;58.11
3254;BME280;1639;42.804;23.342;2022-08-02T06:32:40;71837.00;;;-148.52;54.62
3254;BME280;1639;42.804;23.342;2022-08-02T06:35:06;71795.66;;;-148.52;53.69
3254;BME280;1639;42.804;23.342;2022-08-02T06:37:40;71783.25;;;-148.52;53.51
3254;BME280;1639;42.804;23.342;2022-08-02T06:43:17;71743.97;;;-148.52;53.01
3254;BME280;1639;42.804;23.342;2022-08-02T06:45:44;71725.34;;;-148.52;51.22
3254;BME280;1639;42.804;23.342;2022-08-02T06:48:09;71712.94;;;-148.52;49.67
3254;BME280;1639;42.804;23.342;2022-08-02T06:50:36;71681.94;;;-148.52;48.72
3254;BME280;1639;42.804;23.342;2022-08-02T06:53:07;71644.72;;;-148.52;47.68
3254;BME280;1639;42.804;23.342;2022-08-02T06:55:33;71601.31;;;-148.52;48.57
3254;BME280;1639;42.804;23.342;2022-08-02T06:57:58;71564.09;;;-148.52;45.25
3254;BME280;1639;42.804;23.342;2022-08-02T07:00:24;71531.00;;;-148.52;44.70
3254;BME280;1639;42.804;23.342;2022-08-02T07:02:53;71506.19;;;-148.52;43.27
3254;BME280;1639;42.804;23.342;2022-08-02T07:05:18;71502.06;;;-148.52;44.39
3254;BME280;1639;42.804;23.342;2022-08-02T07:07:44;71466.91;;;-148.52;42.61
3254;BME280;1639;42.804;23.342;2022-08-02T07:10:10;71433.84;;;-148.52;43.75
3254;BME280;1639;42.804;23.342;2022-08-02T07:12:36;71390.41;;;-148.52;43.96
3254;BME280;1639;42.804;23.342;2022-08-02T07:15:04;71355.28;;;-148.52;42.19
3254;BME280;1639;42.804;23.342;2022-08-02T07:17:31;71355.28;;;-148.52;42.04
3254;BME280;1639;42.804;23.342;2022-08-02T07:19:57;71305.66;;;-148.52;41.98
3254;BME280;1639;42.804;23.342;2022-08-02T07:22:23;71268.44;;;-148.52;40.66
3254;BME280;1639;42.804;23.342;2022-08-02T07:24:51;71241.56;;;-148.52;40.67
3254;BME280;1639;42.804;23.342;2022-08-02T07:27:18;71243.63;;;-148.52;38.48
3254;BME280;1639;42.804;23.342;2022-08-02T07:29:44;71291.19;;;-148.52;36.83
3254;BME280;1639;42.804;23.342;2022-08-02T07:32:09;71276.72;;;-148.52;38.79
3254;BME280;1639;42.804;23.342;2022-08-02T07:34:35;71216.75;;;-148.52;37.82
3254;BME280;1639;42.804;23.342;2022-08-02T07:37:00;71191.97;;;-148.52;37.61
3254;BME280;1639;42.804;23.342;2022-08-02T07:39:27;71183.69;;;-148.52;37.54
3254;BME280;1639;42.804;23.342;2022-08-02T07:41:52;71185.75;;;-148.52;38.11
3254;BME280;1639;42.804;23.342;2022-08-02T07:44:18;71181.63;;;-148.52;38.35
3254;BME280;1639;42.804;23.342;2022-08-02T07:46:44;71138.22;;;-148.52;37.72
3254;BME280;1639;42.804;23.342;2022-08-02T07:49:10;71105.13;;;-148.52;38.04
3254;BME280;1639;42.804;23.342;2022-08-02T07:51:35;71080.31;;;-148.52;37.40
3254;BME280;1639;42.804;23.342;2022-08-02T07:54:01;71043.13;;;-148.52;36.54
3254;BME280;1639;42.804;23.342;2022-08-02T07:56:27;71020.38;;;-148.52;35.68
3254;BME280;1639;42.804;23.342;2022-08-02T07:58:52;71003.84;;;-148.52;35.93
3254;BME280;1639;42.804;23.342;2022-08-02T08:01:18;70997.63;;;-148.52;35.97
3254;BME280;1639;42.804;23.342;2022-08-02T08:03:44;70960.44;;;-148.52;36.81
3254;BME280;1639;42.804;23.342;2022-08-02T08:06:10;70933.56;;;-148.52;36.06
3254;BME280;1639;42.804;23.342;2022-08-02T08:08:35;70917.03;;;-148.52;35.37
3254;BME280;1639;42.804;23.342;2022-08-02T08:11:01;70902.53;;;-148.52;34.47
3254;BME280;1639;42.804;23.342;2022-08-02T08:13:26;70898.41;;;-148.52;34.09
3254;BME280;1639;42.804;23.342;2022-08-02T08:15:51;70883.94;;;-148.52;34.92
3254;BME280;1639;42.804;23.342;2022-08-02T08:18:17;70896.34;;;-148.52;34.92
3254;BME280;1639;42.804;23.342;2022-08-02T08:20:42;70912.88;;;-148.52;35.32
3254;BME280;1639;42.804;23.342;2022-08-02T08:23:08;70896.34;;;-148.52;35.57
3254;BME280;1639;42.804;23.342;2022-08-02T08:25:33;70848.81;;;-148.52;35.02
3254;BME280;1639;42.804;23.342;2022-08-02T08:27:59;70809.53;;;-148.52;34.19
3254;BME280;1639;42.804;23.342;2022-08-02T08:30:24;70809.53;;;-148.52;33.92
3254;BME280;1639;42.804;23.342;2022-08-02T08:32:50;70795.06;;;-148.52;32.61
3254;BME280;1639;42.804;23.342;2022-08-02T08:35:15;70786.78;;;-148.52;34.08
3254;BME280;1639;42.804;23.342;2022-08-02T08:37:42;70768.19;;;-148.52;33.63
3254;BME280;1639;42.804;23.342;2022-08-02T08:40:08;70753.72;;;-148.52;33.67
3254;BME280;1639;42.804;23.342;2022-08-02T08:42:37;70735.13;;;-148.52;33.13
3254;BME280;1639;42.804;23.342;2022-08-02T08:45:04;70716.50;;;-148.52;32.41
3254;BME280;1639;42.804;23.342;2022-08-02T08:47:40;70710.31;;;-148.52;32.82
3254;BME280;1639;42.804;23.342;2022-08-02T08:50:11;70730.97;;;-148.52;32.92
3254;BME280;1639;42.804;23.342;2022-08-02T08:52:47;70743.38;;;-148.52;33.45
3254;BME280;1639;42.804;23.342;2022-08-02T08:55:13;70733.03;;;-148.52;34.17
3254;BME280;1639;42.804;23.342;2022-08-02T08:57:41;70720.66;;;-148.52;33.41
3254;BME280;1639;42.804;23.342;2022-08-02T09:00:09;70693.78;;;-148.52;33.34
3254;BME280;1639;42.804;23.342;2022-08-02T09:02:39;70668.97;;;-148.52;32.51
3254;BME280;1639;42.804;23.342;2022-08-02T09:05:09;70671.03;;;-148.52;31.97
3254;BME280;1639;42.804;23.342;2022-08-02T09:07:35;70637.97;;;-148.52;32.03
3254;BME280;1639;42.804;23.342;2022-08-02T09:10:01;70609.03;;;-148.52;31.81
3254;BME280;1639;42.804;23.342;2022-08-02T09:12:26;70600.75;;;-148.52;33.20
3254;BME280;1639;42.804;23.342;2022-08-02T09:14:51;70598.69;;;-148.52;31.66
3254;BME280;1639;42.804;23.342;2022-08-02T09:17:17;70631.75;;;-148.52;31.87
3254;BME280;1639;42.804;23.342;2022-08-02T09:19:43;70671.03;;;-148.52;31.40
3254;BME280;1639;42.804;23.342;2022-08-02T09:22:10;70722.72;;;-148.52;31.70
3254;BME280;1639;42.804;23.342;2022-08-02T09:24:49;70755.78;;;-148.52;31.82
3254;BME280;1639;42.804;23.342;2022-08-02T09:27:20;70832.25;;;-148.52;31.82
3254;BME280;1639;42.804;23.342;2022-08-02T09:29:48;70861.22;;;-148.52;31.87
3254;BME280;1639;42.804;23.342;2022-08-02T09:32:14;70842.59;;;-148.52;32.74
3254;BME280;1639;42.804;23.342;2022-08-02T09:34:47;70780.59;;;-148.52;31.13
3254;BME280;1639;42.804;23.342;2022-08-02T09:37:27;70745.44;;;-148.52;31.95
3254;BME280;1639;42.804;23.342;2022-08-02T09:39:53;70691.72;;;-148.52;31.00
3254;BME280;1639;42.804;23.342;2022-08-02T09:42:19;70660.69;;;-148.52;30.48
3254;BME280;1639;42.804;23.342;2022-08-02T09:45:00;70784.72;;;-148.52;30.74
3254;BME280;1639;42.804;23.342;2022-08-02T09:47:29;70890.16;;;-148.52;31.03
3254;BME280;1639;42.804;23.342;2022-08-02T09:49:56;70871.53;;;-148.52;32.01
3254;BME280;1639;42.804;23.342;2022-08-02T09:52:26;70830.19;;;-148.52;33.18
3254;BME280;1639;42.804;23.342;2022-08-02T09:54:52;70838.47;;;-148.52;31.10
3254;BME280;1639;42.804;23.342;2022-08-02T09:57:28;70966.63;;;-148.52;33.80
3254;BME280;1639;42.804;23.342;2022-08-02T09:59:55;70950.09;;;-148.52;33.14
3254;BME280;1639;42.804;23.342;2022-08-02T10:02:21;70904.63;;;-148.52;33.52
3254;BME280;1639;42.804;23.342;2022-08-02T10:04:47;70855.00;;;-148.52;32.52
3254;BME280;1639;42.804;23.342;2022-08-02T10:07:12;70782.66;;;-148.52;33.51
3254;BME280;1639;42.804;23.342;2022-08-02T10:09:38;70743.38;;;-148.52;31.72
3254;BME280;1639;42.804;23.342;2022-08-02T10:12:05;70735.13;;;-148.52;30.62
3254;BME280;1639;42.804;23.342;2022-08-02T10:14:32;70768.19;;;-148.52;33.28
3254;BME280;1639;42.804;23.342;2022-08-02T10:16:59;70793.00;;;-148.52;32.43
3254;BME280;1639;42.804;23.342;2022-08-02T10:19:24;70755.78;;;-148.52;31.66
3254;BME280;1639;42.804;23.342;2022-08-02T10:22:00;70704.09;;;-148.52;31.56
3254;BME280;1639;42.804;23.342;2022-08-02T10:24:30;70650.38;;;-148.52;30.72
3254;BME280;1639;42.804;23.342;2022-08-02T10:26:58;70780.59;;;-148.52;31.72
3254;BME280;1639;42.804;23.342;2022-08-02T10:29:34;70890.16;;;-148.52;33.48
3254;BME280;1639;42.804;23.342;2022-08-02T10:32:04;70929.41;;;-148.52;33.78
3254;BME280;1639;42.804;23.342;2022-08-02T10:34:46;70834.34;;;-148.52;34.30
3254;BME280;1639;42.804;23.342;2022-08-02T10:37:13;70855.00;;;-148.52;33.51
3254;BME280;1639;42.804;23.342;2022-08-02T10:39:40;70826.06;;;-148.52;32.31
3254;BME280;1639;42.804;23.342;2022-08-02T10:42:06;70824.00;;;-148.52;32.30
3254;BME280;1639;42.804;23.342;2022-08-02T10:44:33;70801.25;;;-148.52;35.01
3254;BME280;1639;42.804;23.342;2022-08-02T10:49:57;70757.84;;;-148.52;33.40
3254;BME280;1639;42.804;23.342;2022-08-02T10:52:24;70764.06;;;-148.52;33.48
3254;BME280;1639;42.804;23.342;2022-08-02T10:55:00;70757.84;;;-148.52;33.91
3254;BME280;1639;42.804;23.342;2022-08-02T10:57:27;70774.38;;;-148.52;33.59
3254;BME280;1639;42.804;23.342;2022-08-02T11:00:01;70888.06;;;-148.52;33.70
3254;BME280;1639;42.804;23.342;2022-08-02T11:02:39;70826.06;;;-148.52;34.47
3254;BME280;1639;42.804;23.342;2022-08-02T11:05:06;70743.38;;;-148.52;32.75
3254;BME280;1639;42.804;23.342;2022-08-02T11:07:35;70747.50;;;-148.52;32.32
3254;BME280;1639;42.804;23.342;2022-08-02T11:13:12;70799.19;;;-148.52;33.12
3254;BME280;1639;42.804;23.342;2022-08-02T11:18:16;70993.50;;;-148.52;33.96
3254;BME280;1639;42.804;23.342;2022-08-02T11:20:42;71024.50;;;-148.52;34.27
3254;BME280;1639;42.804;23.342;2022-08-02T11:23:34;71053.44;;;-148.52;34.96
3254;BME280;1639;42.804;23.342;2022-08-02T11:28:57;70991.44;;;-148.52;34.66
3254;BME280;1639;42.804;23.342;2022-08-02T11:31:23;70958.38;;;-148.52;33.80
3254;BME280;1639;42.804;23.342;2022-08-02T11:33:49;70950.09;;;-148.52;34.76
3254;BME280;1639;42.804;23.342;2022-08-02T11:36:16;70929.41;;;-148.52;34.69
3254;BME280;1639;42.804;23.342;2022-08-02T11:38:41;70908.75;;;-148.52;34.35
3254;BME280;1639;42.804;23.342;2022-08-02T11:41:07;70879.81;;;-148.52;32.97
3254;BME280;1639;42.804;23.342;2022-08-02T11:43:32;70892.22;;;-148.52;34.93
3254;BME280;1639;42.804;23.342;2022-08-02T11:46:02;70855.00;;;-148.52;35.03
3254;BME280;1639;42.804;23.342;2022-08-02T11:48:37;70799.19;;;-148.52;33.21
3254;BME280;1639;42.804;23.342;2022-08-02T11:51:14;70786.78;;;-148.52;31.93
3254;BME280;1639;42.804;23.342;2022-08-02T11:56:08;70720.66;;;-148.52;31.47
3254;BME280;1639;42.804;23.342;2022-08-02T11:58:34;70710.31;;;-148.52;31.01
3254;BME280;1639;42.804;23.342;2022-08-02T12:01:00;70764.06;;;-148.52;32.85
3254;BME280;1639;42.804;23.342;2022-08-02T12:03:25;70776.47;;;-148.52;33.44
3254;BME280;1639;42.804;23.342;2022-08-02T12:05:51;70817.78;;;-148.52;33.38
3254;BME280;1639;42.804;23.342;2022-08-02T12:08:17;70844.66;;;-148.52;33.40
3254;BME280;1639;42.804;23.342;2022-08-02T12:10:47;70857.06;;;-148.52;33.78
3254;BME280;1639;42.804;23.342;2022-08-02T12:13:13;70830.19;;;-148.52;34.51
3254;BME280;1639;42.804;23.342;2022-08-02T12:15:42;70786.78;;;-148.52;33.89
3254;BME280;1639;42.804;23.342;2022-08-02T12:18:19;70774.38;;;-148.52;33.55
3254;BME280;1639;42.804;23.342;2022-08-02T12:21:21;70859.13;;;-148.52;32.38
3254;BME280;1639;42.804;23.342;2022-08-02T12:23:47;70821.94;;;-148.52;32.79
3254;BME280;1639;42.804;23.342;2022-08-02T12:26:12;70824.00;;;-148.52;32.47
3254;BME280;1639;42.804;23.342;2022-08-02T12:28:39;70850.88;;;-148.52;32.34
3254;BME280;1639;42.804;23.342;2022-08-02T12:31:08;70819.88;;;-148.52;31.44
3254;BME280;1639;42.804;23.342;2022-08-02T12:33:52;70780.59;;;-148.52;31.70
3254;BME280;1639;42.804;23.342;2022-08-02T12:36:23;70832.25;;;-148.52;33.19
3254;BME280;1639;42.804;23.342;2022-08-02T12:38:58;70788.84;;;-148.52;32.94
3254;BME280;1639;42.804;23.342;2022-08-02T12:41:27;70799.19;;;-148.52;31.61
3254;BME280;1639;42.804;23.342;2022-08-02T12:43:54;70793.00;;;-148.52;31.90
3254;BME280;1639;42.804;23.342;2022-08-02T12:46:21;70826.06;;;-148.52;31.44
3254;BME280;1639;42.804;23.342;2022-08-02T12:48:47;70838.47;;;-148.52;32.73
3254;BME280;1639;42.804;23.342;2022-08-02T12:51:22;70838.47;;;-148.52;32.79
3254;BME280;1639;42.804;23.342;2022-08-02T12:53:49;70871.53;;;-148.52;32.97
3254;BME280;1639;42.804;23.342;2022-08-02T12:56:29;70840.53;;;-148.52;31.73
3254;BME280;1639;42.804;23.342;2022-08-02T12:58:55;70784.72;;;-148.52;31.15
3254;BME280;1639;42.804;23.342;2022-08-02T13:01:22;70718.56;;;-148.52;31.50
3254;BME280;1639;42.804;23.342;2022-08-02T13:03:48;70712.38;;;-148.52;31.23
3254;BME280;1639;42.804;23.342;2022-08-02T13:06:13;70741.31;;;-148.52;31.15
3254;BME280;1639;42.804;23.342;2022-08-02T13:08:39;70735.13;;;-148.52;30.87
3254;BME280;1639;42.804;23.342;2022-08-02T13:11:04;70768.19;;;-148.52;30.27
3254;BME280;1639;42.804;23.342;2022-08-02T13:13:30;70817.78;;;-148.52;30.68
3254;BME280;1639;42.804;23.342;2022-08-02T13:15:55;70784.72;;;-148.52;30.67
3254;BME280;1639;42.804;23.342;2022-08-02T13:18:21;70846.75;;;-148.52;31.09
3254;BME280;1639;42.804;23.342;2022-08-02T13:20:47;70879.81;;;-148.52;31.41